createdAt,value
2022-11-03T00:00:24.565Z,101323.07
2022-11-03T00:02:55.243Z,101320.40
2022-11-03T00:05:25.696Z,101318.63
2022-11-03T00:07:56.238Z,101315.88
2022-11-03T00:10:26.744Z,101321.35
2022-11-03T00:12:57.322Z,101317.38
2022-11-03T00:15:27.933Z,101313.82
2022-11-03T00:17:58.421Z,101315.93
2022-11-03T00:20:28.973Z,101325.25
2022-11-03T00:22:59.536Z,101327.04
2022-11-03T00:25:30.093Z,101319.56
2022-11-03T00:28:00.675Z,101307.05
2022-11-03T00:30:31.206Z,101312.15
2022-11-03T00:33:01.767Z,101310.41
2022-11-03T00:35:32.044Z,101310.59
2022-11-03T00:38:02.644Z,101318.38
2022-11-03T00:40:33.152Z,101315.59
2022-11-03T00:43:04.115Z,101310.12
2022-11-03T00:45:34.262Z,101306.31
2022-11-03T00:48:04.818Z,101304.65
2022-11-03T00:50:35.360Z,101307.29
2022-11-03T00:53:06.296Z,101307.14
2022-11-03T00:55:36.459Z,101308.81
2022-11-03T00:58:07.023Z,101313.28
2022-11-03T01:00:37.545Z,101307.04
2022-11-03T01:03:08.355Z,101298.21
2022-11-03T01:05:38.732Z,101292.25
2022-11-03T01:08:09.212Z,101290.24
2022-11-03T01:10:39.748Z,101287.42
2022-11-03T01:13:10.309Z,101279.42
2022-11-03T01:15:40.828Z,101277.53
2022-11-03T01:18:11.382Z,101274.20
2022-11-03T01:20:41.914Z,101268.61
2022-11-03T01:23:12.556Z,101257.88
2022-11-03T01:25:43.000Z,101248.49
2022-11-03T01:28:13.575Z,101242.88
2022-11-03T01:30:44.096Z,101241.17
2022-11-03T01:33:14.653Z,101239.23
2022-11-03T01:35:45.190Z,101238.97
2022-11-03T01:38:15.748Z,101231.33
2022-11-03T01:40:46.291Z,101233.29
2022-11-03T01:43:16.857Z,101227.41
2022-11-03T01:45:47.509Z,101218.52
2022-11-03T01:48:17.964Z,101215.21
2022-11-03T01:50:48.573Z,101207.29
2022-11-03T01:53:18.791Z,101202.39
2022-11-03T01:55:49.349Z,101194.11
2022-11-03T01:58:19.932Z,101193.05
2022-11-03T02:00:50.649Z,101192.15
2022-11-03T02:03:21.047Z,101194.06
2022-11-03T02:05:51.634Z,101191.34
2022-11-03T02:08:22.175Z,101187.69
2022-11-03T02:10:52.804Z,101188.45
2022-11-03T02:13:23.342Z,101184.77
2022-11-03T02:15:53.844Z,101181.02
2022-11-03T02:18:24.421Z,101178.01
2022-11-03T02:20:54.991Z,101168.82
2022-11-03T02:23:25.567Z,101165.49
2022-11-03T02:25:56.147Z,101164.21
2022-11-03T02:28:26.737Z,101163.75
2022-11-03T02:30:57.345Z,101156.25
2022-11-03T02:33:27.970Z,101150.47
2022-11-03T02:35:58.459Z,101152.55
2022-11-03T02:38:29.155Z,101152.23
2022-11-03T02:40:59.666Z,101146.08
2022-11-03T02:43:30.174Z,101141.82
2022-11-03T02:46:00.750Z,101135.00
2022-11-03T02:48:31.305Z,101131.47
2022-11-03T02:51:01.874Z,101131.33
2022-11-03T02:53:32.534Z,101127.92
2022-11-03T02:56:03.008Z,101124.16
2022-11-03T02:58:33.540Z,101121.67
2022-11-03T03:01:04.171Z,101116.35
2022-11-03T03:03:34.681Z,101114.69
2022-11-03T03:06:05.244Z,101112.38
2022-11-03T03:08:35.804Z,101118.10
2022-11-03T03:11:06.402Z,101115.62
2022-11-03T03:13:36.939Z,101106.88
2022-11-03T03:16:07.513Z,101104.48
2022-11-03T03:18:38.076Z,101107.27
2022-11-03T03:21:08.670Z,101107.84
2022-11-03T03:23:39.232Z,101107.33
2022-11-03T03:26:09.840Z,101106.57
2022-11-03T03:28:40.380Z,101099.66
2022-11-03T03:31:10.970Z,101100.25
2022-11-03T03:33:44.956Z,101099.43
2022-11-03T03:36:12.116Z,101098.91
2022-11-03T03:38:42.683Z,101098.73
2022-11-03T03:41:13.284Z,101095.91
2022-11-03T03:43:43.829Z,101094.19
2022-11-03T03:46:14.464Z,101089.46
2022-11-03T03:48:44.962Z,101085.66
2022-11-03T03:51:15.622Z,101082.38
2022-11-03T03:53:46.088Z,101080.13
2022-11-03T03:56:16.696Z,101077.69
2022-11-03T03:58:47.219Z,101075.02
2022-11-03T04:01:18.079Z,101076.81
2022-11-03T04:03:48.372Z,101080.18
2022-11-03T04:06:18.939Z,101084.51
2022-11-03T04:08:49.489Z,101083.66
2022-11-03T04:11:20.172Z,101079.88
2022-11-03T04:13:50.651Z,101078.83
2022-11-03T04:16:21.232Z,101076.56
2022-11-03T04:18:51.860Z,101071.49
2022-11-03T04:21:22.375Z,101058.99
2022-11-03T04:23:52.937Z,101051.59
2022-11-03T04:26:23.514Z,101053.04
2022-11-03T04:28:54.065Z,101050.12
2022-11-03T04:31:24.645Z,101044.51
2022-11-03T04:33:55.206Z,101040.13
2022-11-03T04:36:25.880Z,101036.80
2022-11-03T04:38:56.364Z,101034.64
2022-11-03T04:41:26.968Z,101034.40
2022-11-03T04:43:57.526Z,101029.07
2022-11-03T04:46:28.101Z,101024.22
2022-11-03T04:48:58.686Z,101018.64
2022-11-03T04:51:29.257Z,101011.90
2022-11-03T04:53:59.871Z,101010.75
2022-11-03T04:56:30.412Z,101009.28
2022-11-03T04:59:00.967Z,101002.15
2022-11-03T05:01:31.769Z,101001.19
2022-11-03T05:04:02.114Z,101000.64
2022-11-03T05:06:32.686Z,100995.93
2022-11-03T05:09:02.954Z,100991.93
2022-11-03T05:11:33.201Z,100992.25
2022-11-03T05:14:03.798Z,100992.46
2022-11-03T05:16:34.431Z,100988.89
2022-11-03T05:19:04.874Z,100988.22
2022-11-03T05:21:35.442Z,100984.05
2022-11-03T05:24:06.025Z,100981.48
2022-11-03T05:26:36.579Z,100978.49
2022-11-03T05:29:07.128Z,100976.49
2022-11-03T05:31:37.717Z,100973.42
2022-11-03T05:34:08.008Z,100971.63
2022-11-03T05:36:38.585Z,100964.68
2022-11-03T05:39:09.154Z,100956.73
2022-11-03T05:41:39.749Z,100953.00
2022-11-03T05:44:10.309Z,100948.94
2022-11-03T05:46:40.539Z,100938.72
2022-11-03T05:49:10.900Z,100941.02
2022-11-03T05:51:41.433Z,100937.67
2022-11-03T05:54:16.911Z,100938.17
2022-11-03T05:56:42.536Z,100939.44
2022-11-03T05:59:13.074Z,100938.86
2022-11-03T06:01:43.734Z,100938.01
2022-11-03T06:04:14.187Z,100937.93
2022-11-03T06:06:44.741Z,100941.03
2022-11-03T06:09:15.341Z,100939.59
2022-11-03T06:11:45.861Z,100935.21
2022-11-03T06:14:19.884Z,100939.53
2022-11-03T06:16:46.986Z,100937.89
2022-11-03T06:19:17.536Z,100939.07
2022-11-03T06:21:48.123Z,100939.71
2022-11-03T06:24:18.652Z,100940.43
2022-11-03T06:26:49.236Z,100933.07
2022-11-03T06:29:19.967Z,100926.53
2022-11-03T06:31:50.366Z,100923.45
2022-11-03T06:34:20.940Z,100915.92
2022-11-03T06:36:51.489Z,100911.64
2022-11-03T06:39:22.042Z,100916.30
2022-11-03T06:41:52.634Z,100911.89
2022-11-03T06:44:23.165Z,100912.64
2022-11-03T06:46:53.736Z,100910.49
2022-11-03T06:49:24.004Z,100912.62
2022-11-03T06:51:54.581Z,100907.86
2022-11-03T06:54:25.119Z,100907.82
2022-11-03T06:56:55.700Z,100907.15
2022-11-03T06:59:26.241Z,100902.20
2022-11-03T07:01:56.924Z,100894.17
2022-11-03T07:04:27.361Z,100893.77
2022-11-03T07:06:57.916Z,100896.06
2022-11-03T07:09:28.461Z,100892.83
2022-11-03T07:11:59.030Z,100891.20
2022-11-03T07:14:29.563Z,100885.03
2022-11-03T07:17:00.141Z,100885.86
2022-11-03T07:19:30.684Z,100890.72
2022-11-03T07:22:01.263Z,100883.71
2022-11-03T07:24:31.840Z,100886.73
2022-11-03T07:27:02.417Z,100886.05
2022-11-03T07:29:33.108Z,100888.88
2022-11-03T07:32:03.503Z,100885.18
2022-11-03T07:34:34.076Z,100879.18
2022-11-03T07:37:04.628Z,100875.61
2022-11-03T07:39:34.798Z,100875.63
2022-11-03T07:42:05.477Z,100875.55
2022-11-03T07:44:35.978Z,100869.77
2022-11-03T07:47:06.505Z,100863.93
2022-11-03T07:49:37.007Z,100862.88
2022-11-03T07:52:07.665Z,100860.18
2022-11-03T07:54:38.110Z,100853.50
2022-11-03T07:57:08.675Z,100848.78
2022-11-03T07:59:39.273Z,100845.01
2022-11-03T08:02:09.859Z,100843.33
2022-11-03T08:04:40.310Z,100840.61
2022-11-03T08:07:10.964Z,100838.74
2022-11-03T08:09:41.366Z,100828.36
2022-11-03T08:12:11.913Z,100823.86
2022-11-03T08:14:42.431Z,100821.60
2022-11-03T08:17:13.080Z,100820.14
2022-11-03T08:19:43.646Z,100820.49
2022-11-03T08:22:13.813Z,100817.42
2022-11-03T08:24:44.296Z,100813.12
2022-11-03T08:27:14.845Z,100814.91
2022-11-03T08:29:45.368Z,100812.46
2022-11-03T08:32:15.914Z,100809.64
2022-11-03T08:34:46.442Z,100804.46
2022-11-03T08:37:16.981Z,100801.95
2022-11-03T08:39:47.503Z,100797.26
2022-11-03T08:42:18.052Z,100800.48
2022-11-03T08:44:48.546Z,100799.13
2022-11-03T08:47:19.073Z,100794.33
2022-11-03T08:49:49.588Z,100791.24
2022-11-03T08:52:20.107Z,100790.79
2022-11-03T08:54:50.773Z,100786.18
2022-11-03T08:57:21.233Z,100783.08
2022-11-03T08:59:51.636Z,100781.49
2022-11-03T09:02:22.170Z,100774.32
2022-11-03T09:04:52.652Z,100775.01
2022-11-03T09:07:24.210Z,100775.49
2022-11-03T09:10:21.119Z,100769.38
2022-11-03T09:12:24.191Z,100762.55
2022-11-03T09:14:54.674Z,100760.63
2022-11-03T09:17:25.191Z,100759.55
2022-11-03T09:19:55.697Z,100755.70
2022-11-03T09:22:26.203Z,100745.52
2022-11-03T09:24:56.689Z,100738.96
2022-11-03T09:27:27.184Z,100736.54
2022-11-03T09:30:12.183Z,100735.70
2022-11-03T09:32:28.220Z,100732.32
2022-11-03T09:34:58.610Z,100728.10
2022-11-03T09:37:29.192Z,100727.27
2022-11-03T09:39:59.582Z,100727.99
2022-11-03T09:42:30.101Z,100723.54
2022-11-03T09:45:00.554Z,100717.59
2022-11-03T09:47:31.089Z,100705.07
2022-11-03T09:50:01.574Z,100703.44
2022-11-03T09:52:32.153Z,100701.18
2022-11-03T09:55:02.710Z,100699.79
2022-11-03T09:57:33.360Z,100698.55
2022-11-03T10:00:03.656Z,100692.01
2022-11-03T10:02:33.868Z,100686.51
2022-11-03T10:05:08.229Z,100682.07
2022-11-03T10:07:34.764Z,100680.00
2022-11-03T10:10:05.224Z,100676.50
2022-11-03T10:12:35.706Z,100671.56
2022-11-03T10:15:06.154Z,100671.69
2022-11-03T10:17:36.606Z,100663.54
2022-11-03T10:20:07.062Z,100660.52
2022-11-03T10:22:41.009Z,100655.69
2022-11-03T10:25:07.980Z,100651.86
2022-11-03T10:27:38.461Z,100643.24
2022-11-03T10:30:08.909Z,100641.92
2022-11-03T10:32:39.373Z,100638.82
2022-11-03T10:35:09.816Z,100631.32
2022-11-03T10:37:39.984Z,100628.59
2022-11-03T10:40:22.347Z,100618.10
2022-11-03T10:42:40.907Z,100610.19
2022-11-03T10:45:11.324Z,100605.37
2022-11-03T10:47:41.778Z,100591.33
2022-11-03T10:50:12.216Z,100590.59
2022-11-03T10:52:42.738Z,100583.91
2022-11-03T10:55:13.207Z,100576.57
2022-11-03T10:57:43.678Z,100577.70
2022-11-03T11:00:13.713Z,100576.18
2022-11-03T11:02:44.166Z,100575.06
2022-11-03T11:05:14.600Z,100572.17
2022-11-03T11:07:45.111Z,100561.39
2022-11-03T11:10:15.666Z,100558.04
2022-11-03T11:12:45.951Z,100556.12
2022-11-03T11:15:16.059Z,100550.53
2022-11-03T11:17:46.492Z,100542.17
2022-11-03T11:20:16.655Z,100529.21
2022-11-03T11:22:47.080Z,100525.89
2022-11-03T11:25:17.499Z,100522.07
2022-11-03T11:27:47.995Z,100522.91
2022-11-03T11:30:18.357Z,100516.35
2022-11-03T11:32:48.806Z,100512.77
2022-11-03T11:35:19.232Z,100500.84
2022-11-03T11:37:49.679Z,100492.22
2022-11-03T11:40:20.110Z,100483.73
2022-11-03T11:42:50.560Z,100478.56
2022-11-03T11:45:21.059Z,100469.36
2022-11-03T11:47:51.434Z,100469.06
2022-11-03T11:50:21.861Z,100465.18
2022-11-03T11:52:52.346Z,100458.61
2022-11-03T11:55:22.721Z,100459.46
2022-11-03T11:57:53.224Z,100447.66
2022-11-03T12:00:23.660Z,100440.72
2022-11-03T12:02:53.961Z,100448.03
2022-11-03T12:05:24.356Z,100448.97
2022-11-03T12:07:54.779Z,100445.36
2022-11-03T12:10:25.187Z,100446.42
2022-11-03T12:12:55.632Z,100441.47
2022-11-03T12:15:26.023Z,100433.73
2022-11-03T12:17:56.479Z,100425.59
2022-11-03T12:20:26.942Z,100419.77
2022-11-03T12:22:57.286Z,100412.18
2022-11-03T12:25:27.706Z,100405.73
2022-11-03T12:27:58.129Z,100404.96
2022-11-03T12:30:28.536Z,100403.92
2022-11-03T12:32:59.057Z,100400.71
2022-11-03T12:35:29.381Z,100393.03
2022-11-03T12:37:59.826Z,100384.40
2022-11-03T12:40:30.208Z,100384.87
2022-11-03T12:43:00.627Z,100377.45
2022-11-03T12:45:31.030Z,100375.60
2022-11-03T12:48:01.431Z,100363.78
2022-11-03T12:50:31.825Z,100360.71
2022-11-03T12:53:02.245Z,100352.17
2022-11-03T12:55:32.655Z,100341.05
2022-11-03T12:58:03.082Z,100333.90
2022-11-03T13:00:33.476Z,100325.32
2022-11-03T13:03:04.062Z,100323.03
2022-11-03T13:05:34.300Z,100315.46
2022-11-03T13:08:04.805Z,100311.46
2022-11-03T13:10:35.149Z,100297.69
2022-11-03T13:13:05.935Z,100295.37
2022-11-03T13:15:35.979Z,100292.90
2022-11-03T13:18:13.237Z,100279.99
2022-11-03T13:20:36.800Z,100282.78
2022-11-03T13:23:07.503Z,100276.12
2022-11-03T13:25:37.715Z,100266.18
2022-11-03T13:28:08.064Z,100257.78
2022-11-03T13:30:38.463Z,100259.02
2022-11-03T13:33:09.286Z,100253.64
2022-11-03T13:35:39.346Z,100247.22
2022-11-03T13:38:09.764Z,100243.43
2022-11-03T13:40:56.349Z,100246.49
2022-11-03T13:43:11.038Z,100240.72
2022-11-03T13:45:40.970Z,100233.73
2022-11-03T13:50:41.961Z,100227.63
2022-11-03T13:55:43.076Z,100211.29
2022-11-03T14:00:43.562Z,100193.04
2022-11-03T14:05:44.348Z,100188.40
2022-11-03T14:08:14.769Z,100176.98
2022-11-03T14:10:45.174Z,100168.73
2022-11-03T14:13:15.596Z,100155.83
2022-11-03T14:15:45.987Z,100150.87
2022-11-03T14:18:16.415Z,100144.70
2022-11-03T14:20:46.814Z,100139.93
2022-11-03T14:23:17.288Z,100140.94
2022-11-03T14:25:56.050Z,100141.03
2022-11-03T14:28:25.618Z,100140.59
2022-11-03T14:30:48.469Z,100133.81
2022-11-03T14:33:18.886Z,100131.63
2022-11-03T14:35:49.299Z,100130.73
2022-11-03T14:38:19.704Z,100130.36
2022-11-03T14:40:50.187Z,100125.01
2022-11-03T14:43:20.571Z,100117.69
2022-11-03T14:45:50.952Z,100104.35
2022-11-03T14:48:21.323Z,100097.76
2022-11-03T14:50:51.715Z,100091.45
2022-11-03T14:53:22.170Z,100079.19
2022-11-03T14:55:52.529Z,100076.88
2022-11-03T14:58:23.097Z,100077.63
2022-11-03T15:00:53.416Z,100073.12
2022-11-03T15:03:23.786Z,100059.93
2022-11-03T15:05:54.200Z,100060.13
2022-11-03T15:08:24.732Z,100057.79
2022-11-03T15:10:55.040Z,100061.77
2022-11-03T15:13:25.466Z,100053.61
2022-11-03T15:15:55.873Z,100045.06
2022-11-03T15:18:26.359Z,100030.93
2022-11-03T15:20:56.714Z,100022.45
2022-11-03T15:25:57.565Z,100011.16
2022-11-03T15:28:27.946Z,100011.52
2022-11-03T15:30:58.371Z,100006.75
2022-11-03T15:33:28.768Z,100009.65
2022-11-03T15:35:59.301Z,100013.98
2022-11-03T15:38:29.599Z,100015.14
2022-11-03T15:41:00.039Z,100008.80
2022-11-03T15:43:30.443Z,99999.70
2022-11-03T15:46:00.876Z,99994.74
2022-11-03T15:48:34.558Z,99994.93
2022-11-03T15:51:01.730Z,99985.99
2022-11-03T15:53:32.149Z,99979.14
2022-11-03T15:56:02.590Z,99983.02
2022-11-03T15:58:33.017Z,99987.29
2022-11-03T16:01:03.553Z,99990.50
2022-11-03T16:03:33.951Z,99994.50
2022-11-03T16:06:04.399Z,100001.56
2022-11-03T16:08:34.744Z,100001.59
2022-11-03T16:11:05.154Z,100012.42
2022-11-03T16:13:35.570Z,100030.23
2022-11-03T16:16:06.007Z,100036.52
2022-11-03T16:18:36.443Z,100045.45
2022-11-03T16:21:06.909Z,100046.95
2022-11-03T16:23:37.461Z,100039.45
2022-11-03T16:26:07.887Z,100035.55
2022-11-03T16:28:38.294Z,100025.95
2022-11-03T16:31:08.726Z,100023.07
2022-11-03T16:33:39.180Z,100020.47
2022-11-03T16:36:09.649Z,100013.60
2022-11-03T16:38:40.116Z,100007.15
2022-11-03T16:41:10.595Z,100009.97
2022-11-03T16:43:40.762Z,100007.61
2022-11-03T16:46:11.240Z,100001.05
2022-11-03T16:48:41.691Z,99997.13
2022-11-03T16:51:12.153Z,99990.61
2022-11-03T16:53:42.599Z,99984.20
2022-11-03T16:56:13.093Z,99977.15
2022-11-03T16:58:43.618Z,99969.86
2022-11-03T17:01:14.104Z,99962.76
2022-11-03T17:03:44.445Z,99951.21
2022-11-03T17:06:14.908Z,99953.91
2022-11-03T17:08:53.545Z,99951.73
2022-11-03T17:11:15.862Z,99944.49
2022-11-03T17:13:46.403Z,99935.28
2022-11-03T17:16:16.778Z,99930.79
2022-11-03T17:18:47.227Z,99923.92
2022-11-03T17:21:17.690Z,99919.49
2022-11-03T17:23:48.150Z,99914.45
2022-11-03T17:26:18.626Z,99913.14
2022-11-03T17:28:49.073Z,99912.90
2022-11-03T17:31:19.595Z,99912.55
2022-11-03T17:33:50.001Z,99910.28
2022-11-03T17:36:20.463Z,99908.27
2022-11-03T17:38:50.921Z,99909.03
2022-11-03T17:41:21.409Z,99909.42
2022-11-03T17:43:51.869Z,99906.82
2022-11-03T17:46:22.359Z,99906.44
2022-11-03T17:48:52.842Z,99907.64
2022-11-03T17:51:23.320Z,99900.33
2022-11-03T17:53:53.809Z,99897.32
2022-11-03T17:56:30.074Z,99894.62
2022-11-03T17:58:54.929Z,99892.30
2022-11-03T18:01:25.549Z,99888.13
2022-11-03T18:03:55.950Z,99884.05
2022-11-03T18:06:26.322Z,99883.17
2022-11-03T18:08:56.800Z,99880.00
2022-11-03T18:11:27.246Z,99877.59
2022-11-03T18:13:57.768Z,99870.86
2022-11-03T18:16:28.242Z,99869.22
2022-11-03T18:18:58.734Z,99865.80
2022-11-03T18:21:29.325Z,99863.53
2022-11-03T18:23:59.765Z,99857.99
2022-11-03T18:26:30.389Z,99851.36
2022-11-03T18:29:00.907Z,99846.58
2022-11-03T18:31:33.736Z,99846.29
2022-11-03T18:34:01.809Z,99844.68
2022-11-03T18:36:32.331Z,99844.40
2022-11-03T18:39:02.792Z,99842.21
2022-11-03T18:41:33.223Z,99838.90
2022-11-03T18:44:03.700Z,99834.97
2022-11-03T18:46:34.200Z,99830.28
2022-11-03T18:49:04.678Z,99822.16
2022-11-03T18:51:35.224Z,99816.48
2022-11-03T18:54:05.925Z,99817.71
2022-11-03T18:56:38.268Z,99813.74
2022-11-03T18:59:06.906Z,99807.21
2022-11-03T19:01:37.552Z,99801.42
2022-11-03T19:04:07.880Z,99797.51
2022-11-03T19:06:38.474Z,99794.88
2022-11-03T19:09:08.865Z,99793.05
2022-11-03T19:11:39.403Z,99785.40
2022-11-03T19:14:09.962Z,99784.15
2022-11-03T19:16:50.276Z,99782.00
2022-11-03T19:19:10.842Z,99780.94
2022-11-03T19:21:41.353Z,99775.10
2022-11-03T19:24:11.868Z,99770.61
2022-11-03T19:26:42.352Z,99763.32
2022-11-03T19:29:12.941Z,99762.76
2022-11-03T19:31:43.384Z,99758.25
2022-11-03T19:34:13.930Z,99753.48
2022-11-03T19:36:44.318Z,99751.69
2022-11-03T19:39:14.650Z,99751.57
2022-11-03T19:41:45.048Z,99746.62
2022-11-03T19:44:15.536Z,99742.31
2022-11-03T19:46:46.199Z,99745.65
2022-11-03T19:49:16.649Z,99741.97
2022-11-03T19:51:46.867Z,99741.96
2022-11-03T19:54:17.271Z,99740.72
2022-11-03T19:56:48.140Z,99739.38
2022-11-03T19:59:18.275Z,99736.01
2022-11-03T20:01:48.912Z,99726.58
2022-11-03T20:04:19.311Z,99726.92
2022-11-03T20:06:49.461Z,99726.02
2022-11-03T20:09:20.009Z,99720.19
2022-11-03T20:11:50.188Z,99720.66
2022-11-03T20:14:21.823Z,99724.38
2022-11-03T20:16:51.168Z,99726.44
2022-11-03T20:19:21.398Z,99730.09
2022-11-03T20:21:51.872Z,99730.48
2022-11-03T20:24:22.012Z,99730.18
2022-11-03T20:26:52.528Z,99727.94
2022-11-03T20:29:23.091Z,99730.23
2022-11-03T20:31:53.829Z,99729.36
2022-11-03T20:34:24.329Z,99726.43
2022-11-03T20:36:54.910Z,99724.95
2022-11-03T20:39:25.391Z,99721.68
2022-11-03T20:41:55.855Z,99721.29
2022-11-03T20:44:26.465Z,99720.58
2022-11-03T20:46:56.862Z,99716.26
2022-11-03T20:49:27.418Z,99717.06
2022-11-03T20:51:57.885Z,99716.79
2022-11-03T20:54:28.391Z,99717.44
2022-11-03T20:56:58.912Z,99720.76
2022-11-03T20:59:31.072Z,99711.88
2022-11-03T21:02:00.044Z,99713.92
2022-11-03T21:04:30.443Z,99703.38
2022-11-03T21:07:01.011Z,99703.28
2022-11-03T21:09:31.448Z,99703.62
2022-11-03T21:12:01.949Z,99696.86
2022-11-03T21:14:32.422Z,99693.37
2022-11-03T21:17:03.044Z,99687.39
2022-11-03T21:19:33.438Z,99680.57
2022-11-03T21:22:03.956Z,99679.25
2022-11-03T21:24:34.484Z,99677.60
2022-11-03T21:27:04.989Z,99679.81
2022-11-03T21:29:58.003Z,99674.72
2022-11-03T21:32:06.002Z,99673.95
2022-11-03T21:34:36.524Z,99669.87
2022-11-03T21:37:07.037Z,99671.55
2022-11-03T21:39:37.282Z,99677.58
2022-11-03T21:42:07.818Z,99683.97
2022-11-03T21:44:38.292Z,99680.52
2022-11-03T21:47:08.808Z,99676.56
2022-11-03T21:49:39.326Z,99666.71
2022-11-03T21:52:09.839Z,99660.03
2022-11-03T21:54:40.356Z,99666.93
2022-11-03T21:57:10.927Z,99671.30
2022-11-03T21:59:41.013Z,99671.21
2022-11-03T22:02:11.107Z,99669.76
2022-11-03T22:04:41.736Z,99667.48
2022-11-03T22:07:12.070Z,99664.66
2022-11-03T22:09:42.618Z,99668.21
2022-11-03T22:12:13.098Z,99666.39
2022-11-03T22:14:43.264Z,99669.22
2022-11-03T22:17:13.516Z,99670.24
2022-11-03T22:19:44.016Z,99673.53
2022-11-03T22:22:14.493Z,99675.19
2022-11-03T22:24:44.767Z,99679.24
2022-11-03T22:27:15.233Z,99679.69
2022-11-03T22:29:45.730Z,99680.48
2022-11-03T22:32:16.223Z,99677.56
2022-11-03T22:34:46.800Z,99690.26
2022-11-03T22:37:17.235Z,99687.95
2022-11-03T22:39:47.737Z,99680.08
2022-11-03T22:42:18.227Z,99667.74
2022-11-03T22:44:48.346Z,99661.43
2022-11-03T22:47:19.154Z,99656.36
2022-11-03T22:49:49.064Z,99648.99
2022-11-03T22:52:19.580Z,99639.18
2022-11-03T22:54:50.081Z,99639.68
2022-11-03T22:57:20.591Z,99647.55
2022-11-03T22:59:51.075Z,99652.37
2022-11-03T23:02:21.460Z,99644.53
2022-11-03T23:04:51.445Z,99642.61
2022-11-03T23:07:25.732Z,99639.49
2022-11-03T23:09:52.434Z,99633.56
2022-11-03T23:12:22.997Z,99640.45
2022-11-03T23:14:53.856Z,99637.86
2022-11-03T23:17:23.984Z,99632.15
2022-11-03T23:19:54.465Z,99608.26
2022-11-03T23:22:25.177Z,99620.64
2022-11-03T23:24:55.728Z,99636.48
2022-11-03T23:27:26.192Z,99646.15
2022-11-03T23:29:56.479Z,99646.09
2022-11-03T23:32:26.908Z,99639.25
2022-11-03T23:34:57.740Z,99644.86
2022-11-03T23:37:28.245Z,99637.70
2022-11-03T23:39:58.413Z,99644.78
2022-11-03T23:42:28.947Z,99647.70
2022-11-03T23:44:59.555Z,99647.52
2022-11-03T23:47:29.969Z,99637.62
2022-11-03T23:50:00.202Z,99637.45
2022-11-03T23:52:30.722Z,99634.89
2022-11-03T23:55:01.223Z,99629.23
2022-11-03T23:57:31.966Z,99625.92
